createdAt,value
2023-01-19T00:00:54.802Z,1.76
2023-01-19T00:01:54.806Z,1.78
2023-01-19T00:02:54.866Z,1.76
2023-01-19T00:03:54.935Z,1.73
2023-01-19T00:04:54.788Z,1.73
2023-01-19T00:05:55.097Z,1.76
2023-01-19T00:06:54.831Z,1.76
2023-01-19T00:07:54.772Z,1.75
2023-01-19T00:08:54.742Z,1.75
2023-01-19T00:09:54.803Z,1.73
2023-01-19T00:10:54.724Z,1.72
2023-01-19T00:11:54.996Z,1.72
2023-01-19T00:12:55.005Z,1.73
2023-01-19T00:13:54.684Z,1.75
2023-01-19T00:14:54.669Z,1.72
2023-01-19T00:15:54.755Z,1.72
2023-01-19T00:16:54.673Z,1.73
2023-01-19T00:17:54.655Z,1.76
2023-01-19T00:18:54.685Z,1.75
2023-01-19T00:19:54.968Z,1.78
2023-01-19T00:20:54.615Z,1.79
2023-01-19T00:21:54.673Z,1.78
2023-01-19T00:22:54.590Z,1.79
2023-01-19T00:23:54.593Z,1.79
2023-01-19T00:24:54.575Z,1.79
2023-01-19T00:25:54.567Z,1.80
2023-01-19T00:26:54.882Z,1.82
2023-01-19T00:27:55.575Z,1.82
2023-01-19T00:28:54.536Z,1.82
2023-01-19T00:29:54.565Z,1.82
2023-01-19T00:30:54.511Z,1.82
2023-01-19T00:31:54.490Z,1.85
2023-01-19T00:32:54.511Z,1.87
2023-01-19T00:33:54.802Z,1.89
2023-01-19T00:34:54.486Z,1.93
2023-01-19T00:35:54.472Z,1.93
2023-01-19T00:36:54.451Z,1.94
2023-01-19T00:37:54.477Z,1.94
2023-01-19T00:38:54.479Z,1.93
2023-01-19T00:39:54.456Z,1.94
2023-01-19T00:40:54.693Z,1.93
2023-01-19T00:41:54.383Z,1.94
2023-01-19T00:42:54.445Z,1.97
2023-01-19T00:43:54.400Z,1.94
2023-01-19T00:44:54.367Z,1.94
2023-01-19T00:45:54.422Z,1.94
2023-01-19T00:46:54.337Z,1.93
2023-01-19T00:47:54.620Z,1.90
2023-01-19T00:48:54.311Z,1.90
2023-01-19T00:49:54.332Z,1.89
2023-01-19T00:50:54.322Z,1.89
2023-01-19T00:51:54.342Z,1.93
2023-01-19T00:52:54.304Z,1.93
2023-01-19T00:53:54.268Z,1.94
2023-01-19T00:54:54.551Z,1.94
2023-01-19T00:55:54.254Z,1.94
2023-01-19T00:56:54.262Z,1.94
2023-01-19T00:57:54.287Z,1.93
2023-01-19T00:58:54.226Z,1.94
2023-01-19T00:59:54.270Z,1.98
2023-01-19T01:00:54.354Z,1.99
2023-01-19T01:01:54.669Z,1.99
2023-01-19T01:02:54.228Z,1.98
2023-01-19T01:03:54.193Z,1.98
2023-01-19T01:04:54.151Z,1.98
2023-01-19T01:05:54.154Z,2.01
2023-01-19T01:06:54.134Z,1.99
2023-01-19T01:07:54.160Z,1.99
2023-01-19T01:08:54.393Z,2.01
2023-01-19T01:09:54.160Z,2.02
2023-01-19T01:10:54.080Z,2.01
2023-01-19T01:11:54.072Z,2.02
2023-01-19T01:12:57.385Z,2.02
2023-01-19T01:13:54.055Z,2.06
2023-01-19T01:14:54.039Z,2.06
2023-01-19T01:15:54.358Z,2.10
2023-01-19T01:16:54.093Z,2.12
2023-01-19T01:17:54.024Z,2.13
2023-01-19T01:18:54.010Z,2.13
2023-01-19T01:19:54.050Z,2.16
2023-01-19T01:20:56.085Z,2.17
2023-01-19T01:21:53.999Z,2.16
2023-01-19T01:22:54.245Z,2.19
2023-01-19T01:23:53.948Z,2.19
2023-01-19T01:24:53.946Z,2.20
2023-01-19T01:25:53.946Z,2.19
2023-01-19T01:26:53.944Z,2.20
2023-01-19T01:27:53.962Z,2.20
2023-01-19T01:28:53.896Z,2.20
2023-01-19T01:29:54.235Z,2.22
2023-01-19T01:30:53.893Z,2.20
2023-01-19T01:31:53.935Z,2.17
2023-01-19T01:32:53.851Z,2.16
2023-01-19T01:33:53.877Z,2.15
2023-01-19T01:34:53.826Z,2.12
2023-01-19T01:35:53.825Z,2.10
2023-01-19T01:36:54.115Z,2.10
2023-01-19T01:37:53.814Z,2.10
2023-01-19T01:38:53.850Z,2.09
2023-01-19T01:39:53.823Z,2.06
2023-01-19T01:40:53.803Z,2.02
2023-01-19T01:41:54.025Z,2.02
2023-01-19T01:42:53.766Z,2.01
2023-01-19T01:43:54.013Z,1.99
2023-01-19T01:44:53.730Z,1.99
2023-01-19T01:45:53.810Z,1.98
2023-01-19T01:46:53.747Z,1.97
2023-01-19T01:47:53.702Z,1.98
2023-01-19T01:48:53.701Z,1.97
2023-01-19T01:49:53.696Z,1.99
2023-01-19T01:50:53.948Z,1.98
2023-01-19T01:51:53.717Z,1.98
2023-01-19T01:53:05.996Z,1.99
2023-01-19T01:53:53.642Z,2.01
2023-01-19T01:54:53.622Z,2.02
2023-01-19T01:55:53.616Z,2.06
2023-01-19T01:56:53.622Z,2.08
2023-01-19T01:57:53.913Z,2.08
2023-01-19T01:58:53.597Z,2.09
2023-01-19T01:59:53.595Z,2.12
2023-01-19T02:00:53.727Z,2.13
2023-01-19T02:01:53.644Z,2.15
2023-01-19T02:02:53.605Z,2.13
2023-01-19T02:03:53.582Z,2.16
2023-01-19T02:04:53.854Z,2.17
2023-01-19T02:05:53.512Z,2.19
2023-01-19T02:06:53.502Z,2.17
2023-01-19T02:07:53.488Z,2.17
2023-01-19T02:08:53.474Z,2.20
2023-01-19T02:09:53.517Z,2.22
2023-01-19T02:10:53.507Z,2.20
2023-01-19T02:11:53.737Z,2.20
2023-01-19T02:12:53.431Z,2.20
2023-01-19T02:13:53.430Z,2.20
2023-01-19T02:14:53.452Z,2.22
2023-01-19T02:15:53.438Z,2.19
2023-01-19T02:16:53.464Z,2.20
2023-01-19T02:17:53.391Z,2.20
2023-01-19T02:18:53.719Z,2.19
2023-01-19T02:19:53.376Z,2.22
2023-01-19T02:20:53.401Z,2.22
2023-01-19T02:21:53.394Z,2.22
2023-01-19T02:22:53.340Z,2.23
2023-01-19T02:23:53.320Z,2.22
2023-01-19T02:24:53.313Z,2.23
2023-01-19T02:25:53.582Z,2.23
2023-01-19T02:26:53.312Z,2.26
2023-01-19T02:27:53.325Z,2.26
2023-01-19T02:28:53.299Z,2.23
2023-01-19T02:29:53.270Z,2.26
2023-01-19T02:30:53.300Z,2.23
2023-01-19T02:31:53.240Z,2.27
2023-01-19T02:32:53.534Z,2.28
2023-01-19T02:33:53.262Z,2.27
2023-01-19T02:34:53.239Z,2.27
2023-01-19T02:35:53.199Z,2.27
2023-01-19T02:36:53.180Z,2.27
2023-01-19T02:37:53.172Z,2.28
2023-01-19T02:38:53.178Z,2.28
2023-01-19T02:39:53.513Z,2.31
2023-01-19T02:40:53.161Z,2.30
2023-01-19T02:41:53.169Z,2.30
2023-01-19T02:42:53.140Z,2.31
2023-01-19T02:43:53.107Z,2.31
2023-01-19T02:44:53.127Z,2.33
2023-01-19T02:45:53.153Z,2.31
2023-01-19T02:46:53.360Z,2.35
2023-01-19T02:47:53.109Z,2.33
2023-01-19T02:48:53.075Z,2.34
2023-01-19T02:49:53.050Z,2.33
2023-01-19T02:50:53.063Z,2.34
2023-01-19T02:51:53.064Z,2.34
2023-01-19T02:52:53.018Z,2.34
2023-01-19T02:53:53.305Z,2.34
2023-01-19T02:54:53.005Z,2.33
2023-01-19T02:55:52.989Z,2.31
2023-01-19T02:56:53.009Z,2.31
2023-01-19T02:57:53.029Z,2.28
2023-01-19T02:58:52.956Z,2.23
2023-01-19T02:59:52.939Z,2.23
2023-01-19T03:00:53.221Z,2.20
2023-01-19T03:01:53.074Z,2.20
2023-01-19T03:02:52.961Z,2.16
2023-01-19T03:03:52.939Z,2.13
2023-01-19T03:04:52.916Z,2.12
2023-01-19T03:05:52.917Z,2.10
2023-01-19T03:06:52.909Z,2.06
2023-01-19T03:07:53.181Z,2.02
2023-01-19T03:08:52.901Z,1.99
2023-01-19T03:09:52.908Z,1.97
2023-01-19T03:10:52.861Z,1.94
2023-01-19T03:11:52.821Z,1.93
2023-01-19T03:12:52.810Z,1.91
2023-01-19T03:13:52.829Z,1.91
2023-01-19T03:14:53.098Z,1.89
2023-01-19T03:15:52.982Z,1.89
2023-01-19T03:16:52.878Z,1.87
2023-01-19T03:17:52.768Z,1.85
2023-01-19T03:18:52.753Z,1.82
2023-01-19T03:19:52.761Z,1.83
2023-01-19T03:20:52.740Z,1.85
2023-01-19T03:21:54.118Z,1.83
2023-01-19T03:22:52.735Z,1.85
2023-01-19T03:23:52.713Z,1.89
2023-01-19T03:24:52.699Z,1.89
2023-01-19T03:25:52.682Z,1.90
2023-01-19T03:26:52.668Z,1.90
2023-01-19T03:27:52.751Z,1.89
2023-01-19T03:28:52.991Z,1.90
2023-01-19T03:29:52.655Z,1.90
2023-01-19T03:30:52.684Z,1.90
2023-01-19T03:31:52.620Z,1.91
2023-01-19T03:32:52.597Z,1.93
2023-01-19T03:33:52.664Z,1.94
2023-01-19T03:34:52.594Z,1.94
2023-01-19T03:35:52.878Z,1.94
2023-01-19T03:36:52.569Z,1.94
2023-01-19T03:37:52.559Z,1.94
2023-01-19T03:38:52.551Z,1.97
2023-01-19T03:39:52.597Z,1.98
2023-01-19T03:40:52.558Z,1.97
2023-01-19T03:41:52.531Z,1.98
2023-01-19T03:42:53.761Z,1.98
2023-01-19T03:43:52.507Z,1.99
2023-01-19T03:44:52.504Z,2.01
2023-01-19T03:45:52.546Z,2.06
2023-01-19T03:46:52.491Z,2.04
2023-01-19T03:47:52.493Z,2.04
2023-01-19T03:48:52.473Z,2.04
2023-01-19T03:49:52.723Z,2.04
2023-01-19T03:50:52.467Z,2.04
2023-01-19T03:51:52.483Z,2.06
2023-01-19T03:52:52.417Z,2.04
2023-01-19T03:53:52.445Z,2.09
2023-01-19T03:54:52.467Z,2.08
2023-01-19T03:55:52.398Z,2.09
2023-01-19T03:56:52.699Z,2.12
2023-01-19T03:57:52.431Z,2.13
2023-01-19T03:58:52.391Z,2.13
2023-01-19T03:59:52.338Z,2.13
2023-01-19T04:00:52.370Z,2.12
2023-01-19T04:01:52.375Z,2.15
2023-01-19T04:02:52.398Z,2.15
2023-01-19T04:03:52.705Z,2.16
2023-01-19T04:04:52.322Z,2.19
2023-01-19T04:05:52.276Z,2.17
2023-01-19T04:06:52.273Z,2.17
2023-01-19T04:07:52.260Z,2.19
2023-01-19T04:08:52.266Z,2.19
2023-01-19T04:09:52.268Z,2.19
2023-01-19T04:10:52.765Z,2.22
2023-01-19T04:11:52.247Z,2.22
2023-01-19T04:12:52.203Z,2.23
2023-01-19T04:13:52.189Z,2.26
2023-01-19T04:14:52.249Z,2.27
2023-01-19T04:15:52.540Z,2.23
2023-01-19T04:16:52.192Z,2.23
2023-01-19T04:17:52.161Z,2.26
2023-01-19T04:18:52.150Z,2.27
2023-01-19T04:19:52.149Z,2.26
2023-01-19T04:20:52.111Z,2.26
2023-01-19T04:21:52.179Z,2.28
2023-01-19T04:22:52.122Z,2.27
2023-01-19T04:23:52.081Z,2.26
2023-01-19T04:24:52.080Z,2.28
2023-01-19T04:25:52.079Z,2.28
2023-01-19T04:26:52.090Z,2.30
2023-01-19T04:27:52.387Z,2.27
2023-01-19T04:28:52.062Z,2.28
2023-01-19T04:29:52.042Z,2.26
2023-01-19T04:30:52.190Z,2.23
2023-01-19T04:31:52.036Z,2.20
2023-01-19T04:32:52.000Z,2.17
2023-01-19T04:33:52.039Z,2.13
2023-01-19T04:34:52.273Z,2.06
2023-01-19T04:35:54.231Z,2.02
2023-01-19T04:36:51.957Z,1.97
2023-01-19T04:37:51.935Z,1.89
2023-01-19T04:38:51.941Z,1.85
2023-01-19T04:39:51.987Z,1.85
2023-01-19T04:40:51.951Z,1.80
2023-01-19T04:41:52.197Z,1.76
2023-01-19T04:42:52.481Z,1.73
2023-01-19T04:43:51.904Z,1.69
2023-01-19T04:44:51.871Z,1.65
2023-01-19T04:45:51.980Z,1.68
2023-01-19T04:46:51.853Z,1.65
2023-01-19T04:47:51.836Z,1.62
2023-01-19T04:48:52.145Z,1.61
2023-01-19T04:49:51.830Z,1.61
2023-01-19T04:50:51.828Z,1.61
2023-01-19T04:51:51.842Z,1.61
2023-01-19T04:52:51.811Z,1.60
2023-01-19T04:53:51.789Z,1.55
2023-01-19T04:54:51.769Z,1.55
2023-01-19T04:55:52.041Z,1.52
2023-01-19T04:56:51.733Z,1.51
2023-01-19T04:57:51.762Z,1.46
2023-01-19T04:58:51.726Z,1.46
2023-01-19T04:59:51.720Z,1.43
2023-01-19T05:00:51.717Z,1.42
2023-01-19T05:01:51.775Z,1.40
2023-01-19T05:02:52.042Z,1.37
2023-01-19T05:03:51.738Z,1.37
2023-01-19T05:04:51.663Z,1.34
2023-01-19T05:05:51.664Z,1.33
2023-01-19T05:06:51.647Z,1.32
2023-01-19T05:07:51.674Z,1.32
2023-01-19T05:08:51.624Z,1.29
2023-01-19T05:09:51.939Z,1.26
2023-01-19T05:10:51.647Z,1.26
2023-01-19T05:11:51.599Z,1.26
2023-01-19T05:12:51.603Z,1.28
2023-01-19T05:13:51.630Z,1.25
2023-01-19T05:14:51.568Z,1.24
2023-01-19T05:15:51.630Z,1.22
2023-01-19T05:16:51.837Z,1.19
2023-01-19T05:17:51.557Z,1.19
2023-01-19T05:18:52.429Z,1.16
2023-01-19T05:19:51.527Z,1.14
2023-01-19T05:20:51.519Z,1.12
2023-01-19T05:21:51.578Z,1.10
2023-01-19T05:22:51.507Z,1.08
2023-01-19T05:23:51.823Z,1.07
2023-01-19T05:24:51.543Z,1.04
2023-01-19T05:25:51.521Z,1.04
2023-01-19T05:26:51.466Z,1.03
2023-01-19T05:27:51.533Z,1.01
2023-01-19T05:28:51.421Z,1.03
2023-01-19T05:29:51.419Z,1.01
2023-01-19T05:30:51.771Z,1.06
2023-01-19T05:31:51.419Z,1.04
2023-01-19T05:32:51.402Z,1.07
2023-01-19T05:33:51.444Z,1.06
2023-01-19T05:34:51.369Z,1.06
2023-01-19T05:35:51.363Z,1.04
2023-01-19T05:36:51.392Z,1.04
2023-01-19T05:37:51.617Z,1.04
2023-01-19T05:38:51.369Z,1.04
2023-01-19T05:39:51.412Z,1.03
2023-01-19T05:40:51.350Z,1.04
2023-01-19T05:41:51.294Z,1.03
2023-01-19T05:42:51.331Z,1.04
2023-01-19T05:43:51.328Z,1.03
2023-01-19T05:44:51.579Z,1.00
2023-01-19T05:45:51.319Z,1.01
2023-01-19T05:46:51.344Z,1.00
2023-01-19T05:47:51.269Z,1.03
2023-01-19T05:48:51.259Z,1.01
2023-01-19T05:49:51.236Z,1.03
2023-01-19T05:50:51.249Z,1.06
2023-01-19T05:51:51.557Z,1.03
2023-01-19T05:52:51.210Z,1.04
2023-01-19T05:53:51.207Z,1.06
2023-01-19T05:54:51.207Z,1.06
2023-01-19T05:55:51.141Z,1.07
2023-01-19T05:56:51.144Z,1.08
2023-01-19T05:57:51.243Z,1.08
2023-01-19T05:58:51.114Z,1.08
2023-01-19T05:59:51.119Z,1.08
2023-01-19T06:00:51.454Z,1.07
2023-01-19T06:01:51.139Z,1.07
2023-01-19T06:02:51.117Z,1.07
2023-01-19T06:03:51.173Z,1.08
2023-01-19T06:04:51.087Z,1.08
2023-01-19T06:05:51.077Z,1.08
2023-01-19T06:06:51.360Z,1.08
2023-01-19T06:07:51.036Z,1.08
2023-01-19T06:08:51.058Z,1.07
2023-01-19T06:09:51.107Z,1.07
2023-01-19T06:10:51.040Z,1.07
2023-01-19T06:11:51.052Z,1.04
2023-01-19T06:12:51.015Z,1.07
2023-01-19T06:13:51.304Z,1.07
2023-01-19T06:14:50.965Z,1.06
2023-01-19T06:15:51.005Z,1.06
2023-01-19T06:16:50.979Z,1.04
2023-01-19T06:17:50.985Z,1.06
2023-01-19T06:18:50.951Z,1.03
2023-01-19T06:19:50.931Z,1.01
2023-01-19T06:20:51.199Z,1.01
2023-01-19T06:21:50.947Z,0.98
2023-01-19T06:22:50.915Z,0.98
2023-01-19T06:23:50.862Z,1.00
2023-01-19T06:24:50.839Z,1.00
2023-01-19T06:25:50.888Z,1.01
2023-01-19T06:26:50.824Z,0.97
2023-01-19T06:27:51.207Z,0.97
2023-01-19T06:28:50.826Z,0.97
2023-01-19T06:29:50.812Z,0.96
2023-01-19T06:30:50.844Z,0.94
2023-01-19T06:31:50.826Z,0.94
2023-01-19T06:32:50.762Z,0.92
2023-01-19T06:33:50.823Z,0.89
2023-01-19T06:34:53.314Z,0.89
2023-01-19T06:35:50.723Z,0.89
2023-01-19T06:36:50.744Z,0.86
2023-01-19T06:37:50.710Z,0.86
2023-01-19T06:38:50.917Z,0.85
2023-01-19T06:39:50.763Z,0.83
2023-01-19T06:40:50.708Z,0.85
2023-01-19T06:41:50.984Z,0.83
2023-01-19T06:42:50.683Z,0.85
2023-01-19T06:43:50.700Z,0.83
2023-01-19T06:44:50.667Z,0.85
2023-01-19T06:45:50.733Z,0.83
2023-01-19T06:46:50.652Z,0.83
2023-01-19T06:47:50.631Z,0.85
2023-01-19T06:48:50.925Z,0.86
2023-01-19T06:49:50.630Z,0.86
2023-01-19T06:50:50.629Z,0.86
2023-01-19T06:51:50.645Z,0.86
2023-01-19T06:52:50.596Z,0.89
2023-01-19T06:53:50.566Z,0.89
2023-01-19T06:54:50.568Z,0.88
2023-01-19T06:55:50.847Z,0.88
2023-01-19T06:56:50.548Z,0.90
2023-01-19T06:57:51.353Z,0.90
2023-01-19T06:58:50.547Z,0.94
2023-01-19T06:59:50.547Z,0.94
2023-01-19T07:00:50.660Z,0.92
2023-01-19T07:01:50.579Z,0.96
2023-01-19T07:02:50.560Z,0.96
2023-01-19T07:03:50.502Z,0.97
2023-01-19T07:04:50.479Z,0.97
2023-01-19T07:05:50.460Z,0.98
2023-01-19T07:06:50.490Z,0.97
2023-01-19T07:07:50.444Z,0.96
2023-01-19T07:08:50.724Z,0.96
2023-01-19T07:09:51.558Z,0.94
2023-01-19T07:11:25.618Z,0.96
2023-01-19T07:11:50.408Z,0.97
2023-01-19T07:12:50.389Z,0.97
2023-01-19T07:13:50.373Z,0.97
2023-01-19T07:14:50.463Z,0.98
2023-01-19T07:15:51.015Z,0.98
2023-01-19T07:16:50.388Z,1.00
2023-01-19T07:17:50.337Z,0.97
2023-01-19T07:18:50.370Z,0.97
2023-01-19T07:19:50.316Z,0.97
2023-01-19T07:20:50.316Z,0.94
2023-01-19T07:21:50.542Z,0.96
2023-01-19T07:22:50.548Z,0.92
2023-01-19T07:23:50.292Z,0.94
2023-01-19T07:24:50.263Z,0.92
2023-01-19T07:25:50.290Z,0.90
2023-01-19T07:26:50.238Z,0.90
2023-01-19T07:27:50.305Z,0.92
2023-01-19T07:28:50.258Z,0.89
2023-01-19T07:29:52.538Z,0.90
2023-01-19T07:30:50.284Z,0.92
2023-01-19T07:31:50.393Z,0.90
2023-01-19T07:32:50.241Z,0.90
2023-01-19T07:33:50.222Z,0.90
2023-01-19T07:34:50.191Z,0.90
2023-01-19T07:35:50.180Z,0.89
2023-01-19T07:36:50.399Z,0.92
2023-01-19T07:37:50.110Z,0.92
2023-01-19T07:38:50.109Z,0.94
2023-01-19T07:39:50.178Z,0.96
2023-01-19T07:40:50.075Z,0.96
2023-01-19T07:41:50.130Z,0.98
2023-01-19T07:42:50.102Z,1.00
2023-01-19T07:43:50.369Z,1.01
2023-01-19T07:44:50.121Z,1.01
2023-01-19T07:45:50.214Z,1.04
2023-01-19T07:46:50.082Z,1.04
2023-01-19T07:47:50.063Z,1.08
2023-01-19T07:48:50.136Z,1.07
2023-01-19T07:49:50.015Z,1.10
2023-01-19T07:50:50.349Z,1.10
2023-01-19T07:51:50.569Z,1.10
2023-01-19T07:52:50.014Z,1.10
2023-01-19T07:53:49.992Z,1.12
2023-01-19T07:54:49.957Z,1.14
2023-01-19T07:55:49.970Z,1.12
2023-01-19T07:56:49.952Z,1.15
2023-01-19T07:57:50.294Z,1.14
2023-01-19T07:58:49.972Z,1.16
2023-01-19T07:59:50.059Z,1.18
2023-01-19T08:00:49.951Z,1.18
2023-01-19T08:01:49.953Z,1.19
2023-01-19T08:02:49.960Z,1.21
2023-01-19T08:03:49.908Z,1.21
2023-01-19T08:04:50.192Z,1.24
2023-01-19T08:05:49.972Z,1.24
2023-01-19T08:06:49.826Z,1.26
2023-01-19T08:07:51.118Z,1.26
2023-01-19T08:08:49.881Z,1.26
2023-01-19T08:09:50.587Z,1.26
2023-01-19T08:10:49.796Z,1.28
2023-01-19T08:11:50.215Z,1.29
2023-01-19T08:12:49.866Z,1.26
2023-01-19T08:13:49.755Z,1.29
2023-01-19T08:14:49.821Z,1.29
2023-01-19T08:15:49.993Z,1.28
2023-01-19T08:16:49.762Z,1.32
2023-01-19T08:17:49.796Z,1.32
2023-01-19T08:18:50.058Z,1.36
2023-01-19T08:19:49.767Z,1.37
2023-01-19T08:20:49.726Z,1.39
2023-01-19T08:21:49.786Z,1.42
2023-01-19T08:22:49.725Z,1.44
2023-01-19T08:23:49.702Z,1.46
2023-01-19T08:24:50.544Z,1.52
2023-01-19T08:25:50.020Z,1.55
2023-01-19T08:26:49.648Z,1.57
2023-01-19T08:27:49.743Z,1.58
2023-01-19T08:28:49.640Z,1.60
2023-01-19T08:29:49.641Z,1.62
2023-01-19T08:30:49.654Z,1.62
2023-01-19T08:31:49.740Z,1.64
2023-01-19T08:32:49.887Z,1.68
2023-01-19T08:33:49.652Z,1.69
2023-01-19T08:34:49.588Z,1.72
2023-01-19T08:35:49.626Z,1.72
2023-01-19T08:36:49.532Z,1.73
2023-01-19T08:37:49.639Z,1.73
2023-01-19T08:38:49.547Z,1.75
2023-01-19T08:39:49.871Z,1.75
2023-01-19T08:40:49.491Z,1.79
2023-01-19T08:41:49.584Z,1.78
2023-01-19T08:42:49.449Z,1.79
2023-01-19T08:43:49.529Z,1.80
2023-01-19T08:44:57.515Z,1.83
2023-01-19T08:45:49.709Z,1.83
2023-01-19T08:46:49.927Z,1.83
2023-01-19T08:47:49.524Z,1.85
2023-01-19T08:48:49.457Z,1.85
2023-01-19T08:49:49.453Z,1.85
2023-01-19T08:50:49.426Z,1.89
2023-01-19T08:51:49.540Z,1.91
2023-01-19T08:52:49.488Z,1.90
2023-01-19T08:53:49.740Z,1.93
2023-01-19T08:54:49.403Z,1.97
2023-01-19T08:55:49.328Z,1.97
2023-01-19T08:56:49.337Z,1.94
2023-01-19T08:57:49.442Z,1.97
2023-01-19T08:58:59.538Z,1.99
2023-01-19T08:59:49.373Z,2.01
2023-01-19T09:00:49.619Z,2.02
2023-01-19T09:01:49.562Z,2.02
2023-01-19T09:02:49.345Z,2.04
2023-01-19T09:03:49.442Z,2.08
2023-01-19T09:04:49.319Z,2.08
2023-01-19T09:05:49.313Z,2.08
2023-01-19T09:06:49.258Z,2.06
2023-01-19T09:07:49.636Z,2.06
2023-01-19T09:08:49.299Z,2.08
2023-01-19T09:09:49.196Z,2.06
2023-01-19T09:10:49.262Z,2.08
2023-01-19T09:11:49.181Z,2.08
2023-01-19T09:12:49.126Z,2.08
2023-01-19T09:13:49.217Z,2.08
2023-01-19T09:14:49.450Z,2.10
2023-01-19T09:15:49.223Z,2.15
2023-01-19T09:16:49.130Z,2.13
2023-01-19T09:17:49.122Z,2.15
2023-01-19T09:18:49.186Z,2.13
2023-01-19T09:19:49.093Z,2.12
2023-01-19T09:20:49.177Z,2.10
2023-01-19T09:21:49.436Z,2.12
2023-01-19T09:22:49.083Z,2.13
2023-01-19T09:23:49.126Z,2.13
2023-01-19T09:24:49.077Z,2.12
2023-01-19T09:25:49.008Z,2.12
2023-01-19T09:26:49.096Z,2.12
2023-01-19T09:27:49.210Z,2.10
2023-01-19T09:28:49.339Z,2.10
2023-01-19T09:29:48.989Z,2.10
2023-01-19T09:30:49.040Z,2.09
2023-01-19T09:31:49.100Z,2.10
2023-01-19T09:32:48.988Z,2.08
2023-01-19T09:33:49.007Z,2.12
2023-01-19T09:34:48.977Z,2.12
2023-01-19T09:35:49.316Z,2.10
2023-01-19T09:36:48.952Z,2.08
2023-01-19T09:37:48.938Z,2.08
2023-01-19T09:38:48.968Z,2.09
2023-01-19T09:39:48.995Z,2.08
2023-01-19T09:40:48.941Z,2.08
2023-01-19T09:41:48.877Z,2.09
2023-01-19T09:42:49.269Z,2.08
2023-01-19T09:43:48.917Z,2.06
2023-01-19T09:44:48.873Z,2.08
2023-01-19T09:45:48.978Z,2.04
2023-01-19T09:46:48.856Z,2.02
2023-01-19T09:47:48.877Z,2.02
2023-01-19T09:48:48.902Z,2.02
2023-01-19T09:49:49.083Z,2.04
2023-01-19T09:50:48.853Z,2.08
2023-01-19T09:51:48.860Z,2.08
2023-01-19T09:52:48.788Z,2.09
2023-01-19T09:53:48.824Z,2.10
2023-01-19T09:54:48.810Z,2.12
2023-01-19T09:55:48.778Z,2.13
2023-01-19T09:56:52.177Z,2.13
2023-01-19T09:57:48.779Z,2.15
2023-01-19T09:58:48.695Z,2.13
2023-01-19T09:59:48.808Z,2.15
2023-01-19T10:00:48.872Z,2.16
2023-01-19T10:01:48.880Z,2.16
2023-01-19T10:02:48.699Z,2.19
2023-01-19T10:03:48.752Z,2.17
2023-01-19T10:04:48.656Z,2.19
2023-01-19T10:05:48.625Z,2.19
2023-01-19T10:06:48.717Z,2.19
2023-01-19T10:07:48.685Z,2.22
2023-01-19T10:08:48.922Z,2.22
2023-01-19T10:09:48.767Z,2.23
2023-01-19T10:10:48.595Z,2.27
2023-01-19T10:11:53.006Z,2.28
2023-01-19T10:12:48.583Z,2.30
2023-01-19T10:13:48.549Z,2.35
2023-01-19T10:14:48.543Z,2.37
2023-01-19T10:15:48.659Z,2.38
2023-01-19T10:16:48.536Z,2.44
2023-01-19T10:17:48.502Z,2.46
2023-01-19T10:18:48.518Z,2.48
2023-01-19T10:19:48.533Z,2.52
2023-01-19T10:20:48.844Z,2.55
2023-01-19T10:21:48.545Z,2.59
2023-01-19T10:22:48.522Z,2.63
2023-01-19T10:23:48.414Z,2.66
2023-01-19T10:24:48.496Z,2.70
2023-01-19T10:25:48.541Z,2.76
2023-01-19T10:26:48.477Z,2.81
2023-01-19T10:27:48.899Z,2.81
2023-01-19T10:28:48.444Z,2.82
2023-01-19T10:29:48.380Z,2.85
2023-01-19T10:30:48.357Z,2.87
2023-01-19T10:31:48.395Z,2.88
2023-01-19T10:32:48.393Z,2.89
2023-01-19T10:33:48.441Z,2.94
2023-01-19T10:34:48.761Z,2.94
2023-01-19T10:35:48.413Z,2.92
2023-01-19T10:36:48.413Z,2.91
2023-01-19T10:37:48.299Z,2.91
2023-01-19T10:38:48.426Z,2.97
2023-01-19T10:39:48.431Z,3.05
2023-01-19T10:40:48.269Z,2.98
2023-01-19T10:41:48.576Z,3.00
2023-01-19T10:42:48.237Z,3.00
2023-01-19T10:43:48.280Z,3.02
2023-01-19T10:44:48.265Z,3.09
2023-01-19T10:45:48.385Z,3.10
2023-01-19T10:46:48.206Z,3.06
2023-01-19T10:47:48.318Z,3.10
2023-01-19T10:48:48.513Z,3.21
2023-01-19T10:49:48.180Z,3.50
2023-01-19T10:50:48.160Z,3.50
2023-01-19T10:51:48.423Z,3.46
2023-01-19T10:52:48.227Z,3.36
2023-01-19T10:53:48.212Z,3.31
2023-01-19T10:54:48.141Z,3.30
2023-01-19T10:55:48.440Z,3.28
2023-01-19T10:56:48.157Z,3.27
2023-01-19T10:57:48.341Z,3.27
2023-01-19T10:58:48.188Z,3.40
2023-01-19T10:59:48.226Z,3.47
2023-01-19T11:00:48.113Z,3.52
2023-01-19T11:01:48.234Z,3.53
2023-01-19T11:02:48.420Z,3.60
2023-01-19T11:03:48.116Z,3.82
2023-01-19T11:04:49.925Z,3.89
2023-01-19T11:05:47.976Z,3.86
2023-01-19T11:06:48.095Z,3.82
2023-01-19T11:07:48.023Z,3.90
2023-01-19T11:08:47.989Z,4.33
2023-01-19T11:09:48.381Z,4.69
2023-01-19T11:10:49.302Z,4.96
2023-01-19T11:11:47.985Z,4.86
2023-01-19T11:12:47.974Z,4.95
2023-01-19T11:13:48.047Z,4.99
2023-01-19T11:14:47.929Z,4.88
2023-01-19T11:15:48.063Z,4.83
2023-01-19T11:16:48.348Z,4.99
2023-01-19T11:17:47.838Z,5.27
2023-01-19T11:18:48.037Z,5.48
2023-01-19T11:19:48.075Z,5.70
2023-01-19T11:20:47.883Z,5.48
2023-01-19T11:21:47.891Z,5.53
2023-01-19T11:22:48.904Z,5.40
2023-01-19T11:23:48.196Z,5.45
2023-01-19T11:24:48.498Z,5.83
2023-01-19T11:25:47.870Z,6.04
2023-01-19T11:26:47.922Z,6.18
2023-01-19T11:27:47.937Z,6.35
2023-01-19T11:28:47.831Z,6.53
2023-01-19T11:29:47.725Z,6.51
2023-01-19T11:30:48.098Z,6.48
2023-01-19T11:31:47.784Z,6.35
2023-01-19T11:32:47.799Z,6.40
2023-01-19T11:33:49.870Z,6.38
2023-01-19T11:34:47.765Z,6.53
2023-01-19T11:35:47.713Z,6.58
2023-01-19T11:36:47.697Z,6.79
2023-01-19T11:37:48.064Z,6.66
2023-01-19T11:38:47.767Z,6.63
2023-01-19T11:39:47.723Z,6.72
2023-01-19T11:40:47.703Z,6.76
2023-01-19T11:41:47.741Z,6.80
2023-01-19T11:42:47.698Z,6.83
2023-01-19T11:43:49.233Z,6.72
2023-01-19T11:44:47.970Z,6.77
2023-01-19T11:45:47.820Z,7.08
2023-01-19T11:46:49.983Z,7.24
2023-01-19T11:47:47.594Z,7.40
2023-01-19T11:48:47.583Z,7.29
2023-01-19T11:49:47.596Z,7.26
2023-01-19T11:50:47.606Z,6.99
2023-01-19T11:51:47.938Z,7.01
2023-01-19T11:52:48.371Z,7.20
2023-01-19T11:53:47.515Z,7.22
2023-01-19T11:54:47.801Z,7.22
2023-01-19T11:55:47.529Z,7.29
2023-01-19T11:56:47.583Z,7.22
2023-01-19T11:57:47.823Z,7.20
2023-01-19T11:58:47.819Z,7.01
2023-01-19T11:59:47.514Z,7.08
2023-01-19T12:00:47.541Z,7.07
2023-01-19T12:01:47.396Z,6.89
2023-01-19T12:02:47.470Z,6.80
2023-01-19T12:03:47.561Z,6.35
2023-01-19T12:04:47.428Z,5.96
2023-01-19T12:05:48.374Z,6.19
2023-01-19T12:06:47.401Z,6.46
2023-01-19T12:07:47.383Z,6.61
2023-01-19T12:08:47.366Z,6.71
2023-01-19T12:09:47.464Z,6.48
2023-01-19T12:10:47.393Z,6.38
2023-01-19T12:11:47.621Z,6.51
2023-01-19T12:12:47.409Z,6.81
2023-01-19T12:13:47.334Z,6.94
2023-01-19T12:14:47.347Z,7.02
2023-01-19T12:15:47.415Z,6.98
2023-01-19T12:16:47.373Z,7.15
2023-01-19T12:17:47.271Z,7.37
2023-01-19T12:18:47.579Z,7.50
2023-01-19T12:19:47.289Z,7.58
2023-01-19T12:20:47.280Z,7.75
2023-01-19T12:21:47.346Z,7.62
2023-01-19T12:22:47.219Z,7.66
2023-01-19T12:23:47.157Z,7.82
2023-01-19T12:24:47.217Z,7.85
2023-01-19T12:25:47.477Z,7.81
2023-01-19T12:26:47.176Z,7.81
2023-01-19T12:27:47.198Z,7.85
2023-01-19T12:28:47.194Z,7.75
2023-01-19T12:29:47.142Z,7.77
2023-01-19T12:30:47.406Z,7.75
2023-01-19T12:31:47.297Z,7.77
2023-01-19T12:32:47.432Z,7.69
2023-01-19T12:33:47.177Z,7.60
2023-01-19T12:34:47.057Z,7.47
2023-01-19T12:35:47.147Z,7.22
2023-01-19T12:36:47.070Z,6.53
2023-01-19T12:37:46.993Z,5.96
2023-01-19T12:38:47.082Z,5.52
2023-01-19T12:39:47.428Z,5.25
2023-01-19T12:40:47.081Z,5.17
2023-01-19T12:41:47.025Z,5.01
2023-01-19T12:42:47.043Z,4.83
2023-01-19T12:43:47.039Z,4.64
2023-01-19T12:44:47.025Z,4.54
2023-01-19T12:45:48.013Z,4.46
2023-01-19T12:46:46.990Z,4.42
2023-01-19T12:47:50.495Z,4.36
2023-01-19T12:48:46.935Z,4.34
2023-01-19T12:49:46.875Z,4.33
2023-01-19T12:50:46.968Z,4.32
2023-01-19T12:51:46.932Z,4.29
2023-01-19T12:52:47.211Z,4.29
2023-01-19T12:53:46.873Z,4.32
2023-01-19T12:54:46.972Z,4.36
2023-01-19T12:55:46.976Z,4.50
2023-01-19T12:56:46.865Z,4.44
2023-01-19T12:57:47.052Z,4.42
2023-01-19T12:58:46.888Z,4.37
2023-01-19T12:59:46.829Z,4.36
2023-01-19T13:00:46.830Z,4.39
2023-01-19T13:01:46.988Z,4.46
2023-01-19T13:02:47.055Z,4.43
2023-01-19T13:03:46.838Z,4.46
2023-01-19T13:04:47.091Z,4.51
2023-01-19T13:05:46.760Z,4.61
2023-01-19T13:06:46.807Z,4.83
2023-01-19T13:07:46.810Z,4.96
2023-01-19T13:08:46.654Z,4.95
2023-01-19T13:09:46.878Z,5.05
2023-01-19T13:10:46.740Z,4.98
2023-01-19T13:11:53.717Z,4.95
2023-01-19T13:12:46.709Z,4.88
2023-01-19T13:13:46.732Z,5.02
2023-01-19T13:14:46.712Z,5.04
2023-01-19T13:15:46.840Z,5.01
2023-01-19T13:16:46.931Z,5.04
2023-01-19T13:17:48.982Z,4.99
2023-01-19T13:18:46.597Z,4.91